Time;durP1;ratioP1;P1;durP2;ratioP2;P2;SDS_P1;SDS_P2;PMS_P1;PMS_P2;Temp;Humidity;BMP_temperature;BMP_pressure;BME280_temperature;BME280_humidity;BME280_pressure;Samples;Min_cycle;Max_cycle;Signal;HPM_P1;HPM_P2
2023/09/09 00:02:19;;;;;;;;;30.33;26.67;;;;;;;;5094613;27;45573;-79
2023/09/09 00:04:44;;;;;;;;;29.33;26.00;;;;;;;;5088852;27;46349;-79
2023/09/09 00:07:11;;;;;;;;;29.00;26.33;;;;;;;;5095092;27;45468;-79
2023/09/09 00:09:37;;;;;;;;;25.00;25.00;;;;;;;;5094082;27;45931;-78
2023/09/09 00:12:02;;;;;;;;;28.67;25.00;;;;;;;;5084779;27;45904;-78
2023/09/09 00:14:28;;;;;;;;;27.33;24.00;;;;;;;;5089108;27;45951;-78
2023/09/09 00:16:53;;;;;;;;;35.67;28.67;;;;;;;;5095633;27;45400;-78
2023/09/09 00:19:21;;;;;;;;;27.00;24.00;;;;;;;;5092762;27;45850;-77
2023/09/09 00:21:46;;;;;;;;;35.00;28.67;;;;;;;;5093288;27;45908;-78
2023/09/09 00:24:11;;;;;;;;;30.67;23.33;;;;;;;;5093306;27;45766;-78
2023/09/09 00:26:37;;;;;;;;;17.67;17.67;;;;;;;;5075546;27;45367;-78
2023/09/09 00:29:03;;;;;;;;;26.00;23.33;;;;;;;;5094272;27;45555;-78
2023/09/09 00:31:28;;;;;;;;;29.67;24.00;;;;;;;;5088313;27;45538;-78
2023/09/09 00:33:54;;;;;;;;;29.33;25.67;;;;;;;;5093214;27;46043;-80
2023/09/09 00:36:19;;;;;;;;;28.33;26.00;;;;;;;;5083825;27;45774;-79
2023/09/09 00:38:44;;;;;;;;;33.67;25.67;;;;;;;;5084023;27;45891;-77
2023/09/09 00:41:10;;;;;;;;;26.33;22.33;;;;;;;;5086366;27;45508;-79
2023/09/09 00:43:37;;;;;;;;;29.33;24.33;;;;;;;;5093675;27;45763;-79
2023/09/09 00:46:03;;;;;;;;;27.33;23.00;;;;;;;;5093688;27;45698;-78
2023/09/09 00:48:28;;;;;;;;;28.33;23.67;;;;;;;;5093908;27;45614;-77
2023/09/09 00:50:54;;;;;;;;;28.33;27.33;;;;;;;;5092016;27;45864;-79
2023/09/09 00:53:19;;;;;;;;;28.67;23.67;;;;;;;;5089217;27;45824;-78
2023/09/09 00:55:45;;;;;;;;;26.67;25.00;;;;;;;;5091778;27;45878;-78
2023/09/09 00:58:10;;;;;;;;;27.67;24.67;;;;;;;;5091563;27;45695;-79
2023/09/09 01:00:37;;;;;;;;;24.33;23.33;;;;;;;;5087418;27;46050;-77
2023/09/09 01:03:03;;;;;;;;;28.67;26.00;;;;;;;;5088743;27;47016;-78
2023/09/09 01:05:29;;;;;;;;;28.67;25.67;;;;;;;;5090595;27;45746;-79
2023/09/09 01:07:54;;;;;;;;;29.67;23.33;;;;;;;;5087928;27;45452;-78
2023/09/09 01:10:20;;;;;;;;;27.33;27.00;;;;;;;;5093203;27;45584;-79
2023/09/09 01:12:46;;;;;;;;;28.33;27.33;;;;;;;;5089634;27;45841;-78
2023/09/09 01:15:11;;;;;;;;;31.00;28.33;;;;;;;;5081441;27;45457;-78
2023/09/09 01:17:37;;;;;;;;;28.00;25.00;;;;;;;;5087095;27;45815;-79
2023/09/09 01:20:09;;;;;;;;;26.33;24.33;;;;;;;;5084692;27;45681;-79
2023/09/09 01:22:37;;;;;;;;;26.33;22.00;;;;;;;;5081617;27;46635;-78
2023/09/09 01:25:06;;;;;;;;;27.33;24.00;;;;;;;;5083418;27;45740;-78
2023/09/09 01:27:31;;;;;;;;;24.67;23.33;;;;;;;;5092862;27;45341;-78
2023/09/09 01:29:57;;;;;;;;;28.00;23.67;;;;;;;;5091366;27;45310;-78
2023/09/09 01:32:22;;;;;;;;;24.67;23.67;;;;;;;;5090676;27;46537;-78
2023/09/09 01:34:49;;;;;;;;;26.67;24.33;;;;;;;;5091944;27;45381;-78
2023/09/09 01:37:14;;;;;;;;;28.00;22.67;;;;;;;;5092747;27;45484;-78
2023/09/09 01:39:39;;;;;;;;;21.33;19.67;;;;;;;;5073617;27;45888;-78
2023/09/09 01:42:05;;;;;;;;;27.33;25.00;;;;;;;;5091667;27;45610;-78
2023/09/09 01:44:30;;;;;;;;;22.33;20.67;;;;;;;;5092636;27;45573;-77
2023/09/09 01:46:55;;;;;;;;;26.67;24.67;;;;;;;;5092312;27;45399;-79
2023/09/09 01:49:20;;;;;;;;;25.00;20.67;;;;;;;;5091500;27;45404;-80
2023/09/09 01:51:45;;;;;;;;;12.67;12.67;;;;;;;;5073170;27;45639;-78
2023/09/09 01:54:11;;;;;;;;;29.00;22.33;;;;;;;;5074544;27;46079;-80
2023/09/09 01:56:36;;;;;;;;;31.00;29.33;;;;;;;;5092950;27;45785;-79
2023/09/09 01:59:01;;;;;;;;;23.67;22.00;;;;;;;;5070883;27;46262;-79
2023/09/09 02:01:26;;;;;;;;;23.00;23.00;;;;;;;;5085882;27;46064;-80
2023/09/09 02:03:52;;;;;;;;;28.33;23.33;;;;;;;;5078300;27;46869;-78
2023/09/09 02:06:17;;;;;;;;;27.67;23.00;;;;;;;;5081834;27;45335;-78
2023/09/09 02:08:42;;;;;;;;;20.00;18.33;;;;;;;;5078406;27;45578;-72
2023/09/09 02:11:07;;;;;;;;;21.33;21.33;;;;;;;;5090082;27;46521;-71
2023/09/09 02:13:33;;;;;;;;;25.33;20.67;;;;;;;;5081689;27;45652;-71
2023/09/09 02:16:05;;;;;;;;;27.33;22.67;;;;;;;;5091415;27;45404;-74
2023/09/09 02:18:30;;;;;;;;;18.00;16.00;;;;;;;;5091251;27;45587;-71
2023/09/09 02:20:58;;;;;;;;;26.67;25.67;;;;;;;;5080843;27;46580;-72
2023/09/09 02:23:24;;;;;;;;;26.33;23.00;;;;;;;;5090187;27;45852;-71
2023/09/09 02:25:49;;;;;;;;;24.00;21.33;;;;;;;;5092208;27;45690;-71
2023/09/09 02:28:14;;;;;;;;;23.33;20.33;;;;;;;;5091824;27;45672;-72
2023/09/09 02:30:42;;;;;;;;;24.67;20.67;;;;;;;;5086555;27;45455;-73
2023/09/09 02:33:09;;;;;;;;;26.67;24.67;;;;;;;;5088709;27;45393;-72
2023/09/09 02:35:34;;;;;;;;;17.33;16.33;;;;;;;;5091338;27;46084;-71
2023/09/09 02:37:59;;;;;;;;;25.00;22.00;;;;;;;;5079451;27;45433;-70
2023/09/09 02:40:24;;;;;;;;;31.00;24.67;;;;;;;;5089119;27;45997;-72
2023/09/09 02:42:49;;;;;;;;;22.67;20.00;;;;;;;;5091847;27;45678;-71
2023/09/09 02:45:15;;;;;;;;;19.00;17.00;;;;;;;;5092050;27;45599;-71
2023/09/09 02:47:43;;;;;;;;;21.00;19.33;;;;;;;;5088170;27;45902;-77
2023/09/09 02:50:08;;;;;;;;;23.33;19.33;;;;;;;;5084405;27;46198;-78
2023/09/09 02:52:33;;;;;;;;;23.00;20.67;;;;;;;;5079494;27;45364;-76
2023/09/09 02:54:59;;;;;;;;;20.67;19.67;;;;;;;;5088161;27;45524;-77
2023/09/09 02:57:24;;;;;;;;;20.00;19.67;;;;;;;;5089954;27;45399;-77
2023/09/09 02:59:49;;;;;;;;;22.33;16.67;;;;;;;;5091933;27;46152;-77
2023/09/09 03:02:15;;;;;;;;;21.33;19.67;;;;;;;;5089486;27;45531;-77
2023/09/09 03:04:40;;;;;;;;;18.33;18.00;;;;;;;;5089609;27;45771;-78
2023/09/09 03:07:05;;;;;;;;;23.67;21.33;;;;;;;;5088825;27;45437;-77
2023/09/09 03:09:35;;;;;;;;;20.00;19.00;;;;;;;;5083212;27;45412;-76
2023/09/09 03:12:02;;;;;;;;;22.00;18.67;;;;;;;;5073017;27;45490;-77
2023/09/09 03:14:28;;;;;;;;;17.33;16.67;;;;;;;;5087553;27;45899;-77
2023/09/09 03:16:53;;;;;;;;;21.33;17.33;;;;;;;;5085908;27;45794;-77
2023/09/09 03:19:18;;;;;;;;;21.67;17.67;;;;;;;;5074380;27;47886;-78
2023/09/09 03:21:44;;;;;;;;;23.00;19.00;;;;;;;;5071700;27;45641;-77
2023/09/09 03:24:09;;;;;;;;;22.33;21.00;;;;;;;;5075132;27;45542;-79
2023/09/09 03:26:35;;;;;;;;;23.67;18.67;;;;;;;;5095478;27;45344;-78
2023/09/09 03:29:00;;;;;;;;;18.00;15.00;;;;;;;;5094228;27;47449;-77
2023/09/09 03:31:26;;;;;;;;;22.00;17.67;;;;;;;;5095003;27;45423;-78
2023/09/09 03:33:51;;;;;;;;;18.00;13.67;;;;;;;;5095523;27;45703;-78
2023/09/09 03:36:16;;;;;;;;;20.67;20.33;;;;;;;;5096357;27;46129;-78
2023/09/09 03:38:42;;;;;;;;;19.00;17.67;;;;;;;;5095050;27;45813;-78
2023/09/09 03:41:07;;;;;;;;;20.67;18.67;;;;;;;;5084152;27;45953;-78
2023/09/09 03:43:33;;;;;;;;;21.33;19.33;;;;;;;;5085590;27;45583;-77
2023/09/09 03:45:59;;;;;;;;;19.00;16.33;;;;;;;;5079721;27;45918;-79
2023/09/09 03:48:24;;;;;;;;;18.33;16.00;;;;;;;;5083587;27;45788;-77
2023/09/09 03:50:49;;;;;;;;;25.00;20.33;;;;;;;;5078208;27;45763;-78
2023/09/09 03:53:15;;;;;;;;;21.33;19.00;;;;;;;;5080617;27;45930;-79
2023/09/09 03:55:40;;;;;;;;;18.33;16.33;;;;;;;;5094662;27;45793;-80
2023/09/09 03:58:06;;;;;;;;;19.67;16.33;;;;;;;;5094012;27;46687;-79
2023/09/09 04:00:31;;;;;;;;;16.67;15.67;;;;;;;;5094818;27;45407;-78
2023/09/09 04:02:56;;;;;;;;;20.67;16.67;;;;;;;;5094579;27;45380;-77
2023/09/09 04:05:22;;;;;;;;;19.33;15.00;;;;;;;;5085234;27;45522;-78
2023/09/09 04:07:48;;;;;;;;;19.67;17.67;;;;;;;;5091861;27;47070;-78
2023/09/09 04:10:13;;;;;;;;;34.00;29.67;;;;;;;;5076407;27;45417;-79
2023/09/09 04:12:38;;;;;;;;;18.00;17.33;;;;;;;;5082802;27;45492;-77
2023/09/09 04:15:05;;;;;;;;;17.67;16.33;;;;;;;;5075985;27;47242;-78
2023/09/09 04:17:30;;;;;;;;;20.67;18.67;;;;;;;;5079629;27;45881;-80
2023/09/09 04:19:56;;;;;;;;;24.00;20.33;;;;;;;;5087176;27;45719;-78
2023/09/09 04:22:22;;;;;;;;;18.67;18.33;;;;;;;;5081601;27;45556;-79
2023/09/09 04:24:47;;;;;;;;;21.00;21.00;;;;;;;;5086747;27;45462;-79
2023/09/09 04:27:12;;;;;;;;;19.67;19.33;;;;;;;;5087941;27;45706;-79
2023/09/09 04:29:37;;;;;;;;;17.00;16.67;;;;;;;;5086500;27;45482;-78
2023/09/09 04:32:03;;;;;;;;;17.33;14.33;;;;;;;;5087150;27;45409;-78
2023/09/09 04:34:28;;;;;;;;;20.33;17.33;;;;;;;;5090244;27;45839;-77
2023/09/09 04:36:53;;;;;;;;;24.67;17.67;;;;;;;;5093804;27;46029;-80
2023/09/09 04:39:18;;;;;;;;;22.00;17.67;;;;;;;;5085344;27;45610;-78
2023/09/09 04:41:44;;;;;;;;;14.67;13.00;;;;;;;;5095790;27;45938;-78
2023/09/09 04:44:09;;;;;;;;;20.00;17.00;;;;;;;;5094444;27;45824;-79
2023/09/09 04:46:35;;;;;;;;;21.67;18.67;;;;;;;;5075056;27;46506;-78
2023/09/09 04:49:00;;;;;;;;;17.33;16.67;;;;;;;;5086727;27;46036;-84
2023/09/09 04:51:25;;;;;;;;;21.33;17.67;;;;;;;;5067587;27;45780;-78
2023/09/09 04:53:51;;;;;;;;;21.67;16.33;;;;;;;;5089194;27;45473;-79
2023/09/09 04:56:16;;;;;;;;;22.00;21.00;;;;;;;;5085847;27;46073;-78
2023/09/09 04:58:42;;;;;;;;;19.00;17.67;;;;;;;;5082817;27;45678;-78
2023/09/09 05:01:07;;;;;;;;;19.33;18.00;;;;;;;;5086613;27;45833;-78
2023/09/09 05:03:32;;;;;;;;;19.33;17.67;;;;;;;;5093370;27;45481;-77
2023/09/09 05:05:58;;;;;;;;;17.67;16.67;;;;;;;;5091346;27;46348;-77
2023/09/09 05:08:23;;;;;;;;;18.33;17.00;;;;;;;;5091662;27;45941;-80
2023/09/09 05:10:48;;;;;;;;;16.67;12.67;;;;;;;;5086094;27;45740;-80
2023/09/09 05:13:13;;;;;;;;;26.33;19.00;;;;;;;;5087767;27;45610;-79
2023/09/09 05:15:38;;;;;;;;;17.00;14.67;;;;;;;;5097434;27;46338;-77
2023/09/09 05:18:04;;;;;;;;;18.33;16.67;;;;;;;;5088105;27;45646;-78
2023/09/09 05:20:30;;;;;;;;;20.33;16.67;;;;;;;;5086576;27;45421;-79
2023/09/09 05:22:55;;;;;;;;;21.33;18.00;;;;;;;;5094726;27;46003;-79
2023/09/09 05:25:20;;;;;;;;;23.00;21.67;;;;;;;;5085893;27;45849;-79
2023/09/09 05:27:46;;;;;;;;;16.00;15.67;;;;;;;;5084071;27;45680;-79
2023/09/09 05:30:11;;;;;;;;;20.67;20.00;;;;;;;;5074964;27;45601;-80
2023/09/09 05:32:36;;;;;;;;;23.00;20.00;;;;;;;;5089257;27;45328;-78
2023/09/09 05:35:02;;;;;;;;;20.00;16.67;;;;;;;;5094694;27;45716;-79
2023/09/09 05:37:28;;;;;;;;;18.67;18.67;;;;;;;;5070609;27;45791;-78
2023/09/09 05:39:54;;;;;;;;;20.00;19.67;;;;;;;;5085305;27;44901;-77
2023/09/09 05:42:19;;;;;;;;;19.33;16.67;;;;;;;;5089871;27;45442;-78
2023/09/09 05:44:44;;;;;;;;;22.67;21.00;;;;;;;;5090506;27;46786;-79
2023/09/09 05:47:09;;;;;;;;;21.00;17.33;;;;;;;;5068974;27;45410;-79
2023/09/09 05:49:35;;;;;;;;;17.00;17.00;;;;;;;;5087765;27;45593;-79
2023/09/09 05:52:01;;;;;;;;;18.33;16.00;;;;;;;;5090263;27;45692;-78
2023/09/09 05:54:26;;;;;;;;;24.00;18.67;;;;;;;;5064669;27;45612;-78
2023/09/09 05:56:51;;;;;;;;;18.67;16.33;;;;;;;;5082237;27;45486;-78
2023/09/09 05:59:17;;;;;;;;;22.33;19.33;;;;;;;;5089632;27;45503;-79
2023/09/09 06:01:42;;;;;;;;;19.33;19.33;;;;;;;;5090002;27;45441;-79
2023/09/09 06:04:07;;;;;;;;;24.00;18.33;;;;;;;;5086207;27;45781;-79
2023/09/09 06:06:33;;;;;;;;;19.00;17.00;;;;;;;;5087041;27;45744;-79
2023/09/09 06:08:58;;;;;;;;;21.00;17.67;;;;;;;;5081015;27;45877;-78
2023/09/09 06:11:26;;;;;;;;;17.00;17.00;;;;;;;;5090156;27;45947;-82
2023/09/09 06:13:52;;;;;;;;;20.33;17.00;;;;;;;;5090956;27;46461;-78
2023/09/09 06:16:17;;;;;;;;;14.33;14.00;;;;;;;;5077163;27;45334;-80
2023/09/09 06:18:43;;;;;;;;;18.67;17.00;;;;;;;;5064132;28;45512;-80
2023/09/09 06:21:08;;;;;;;;;14.33;13.33;;;;;;;;5083004;27;46228;-80
2023/09/09 06:23:35;;;;;;;;;17.67;15.67;;;;;;;;5094178;27;45756;-78
2023/09/09 06:26:00;;;;;;;;;22.00;17.33;;;;;;;;5086372;27;45886;-78
2023/09/09 06:28:25;;;;;;;;;18.67;18.67;;;;;;;;5081290;27;45868;-79
2023/09/09 06:30:50;;;;;;;;;16.67;14.67;;;;;;;;5090365;27;45849;-78
2023/09/09 06:33:16;;;;;;;;;20.67;14.33;;;;;;;;5079319;27;45492;-78
2023/09/09 06:35:48;;;;;;;;;26.00;18.67;;;;;;;;5065255;27;45472;-78
2023/09/09 06:38:15;;;;;;;;;13.33;13.33;;;;;;;;5091858;27;45947;-78
2023/09/09 06:40:42;;;;;;;;;18.33;15.00;;;;;;;;5087048;27;45570;-80
2023/09/09 06:43:07;;;;;;;;;24.33;18.67;;;;;;;;5086344;27;45840;-78
2023/09/09 06:45:33;;;;;;;;;18.67;17.00;;;;;;;;5086648;27;45990;-78
2023/09/09 06:47:59;;;;;;;;;16.33;16.33;;;;;;;;5094572;27;45343;-77
2023/09/09 06:50:24;;;;;;;;;21.33;14.33;;;;;;;;5089422;27;45935;-78
2023/09/09 06:52:49;;;;;;;;;23.00;19.00;;;;;;;;5086192;27;45724;-83
2023/09/09 06:55:15;;;;;;;;;16.33;16.33;;;;;;;;5082095;27;45748;-82
2023/09/09 06:57:40;;;;;;;;;19.67;17.67;;;;;;;;5073973;27;45848;-78
2023/09/09 07:00:06;;;;;;;;;23.33;16.33;;;;;;;;5094976;27;45390;-80
2023/09/09 07:02:31;;;;;;;;;18.67;18.67;;;;;;;;5075503;27;47334;-79
2023/09/09 07:04:56;;;;;;;;;21.67;19.00;;;;;;;;5091380;27;45647;-79
2023/09/09 07:07:22;;;;;;;;;16.00;16.00;;;;;;;;5068416;27;45423;-80
2023/09/09 07:09:47;;;;;;;;;16.33;16.33;;;;;;;;5072037;27;46127;-79
2023/09/09 07:12:13;;;;;;;;;17.67;16.00;;;;;;;;5084280;27;46038;-79
2023/09/09 07:14:38;;;;;;;;;16.00;16.00;;;;;;;;5071163;27;45880;-80
2023/09/09 07:17:03;;;;;;;;;17.33;15.00;;;;;;;;5092438;27;45776;-80
2023/09/09 07:19:29;;;;;;;;;21.00;18.33;;;;;;;;5090063;27;45694;-83
2023/09/09 07:21:54;;;;;;;;;29.33;23.67;;;;;;;;5079805;27;45470;-81
2023/09/09 07:24:19;;;;;;;;;16.33;15.00;;;;;;;;5092506;27;45635;-83
2023/09/09 07:26:44;;;;;;;;;14.00;14.00;;;;;;;;5077878;27;45831;-85
2023/09/09 07:29:10;;;;;;;;;17.33;16.33;;;;;;;;5083253;27;45544;-82
2023/09/09 07:31:35;;;;;;;;;17.00;15.33;;;;;;;;5066181;28;47870;-81
2023/09/09 07:34:00;;;;;;;;;18.33;16.33;;;;;;;;5083132;27;45539;-83
2023/09/09 07:36:25;;;;;;;;;16.67;16.00;;;;;;;;5071833;27;45606;-84
2023/09/09 07:38:51;;;;;;;;;14.33;13.00;;;;;;;;5087861;27;45413;-80
2023/09/09 07:41:16;;;;;;;;;15.67;14.33;;;;;;;;5089471;27;46845;-83
2023/09/09 07:43:42;;;;;;;;;15.67;14.67;;;;;;;;5093430;27;45491;-83
2023/09/09 07:46:08;;;;;;;;;16.67;16.67;;;;;;;;5095873;27;46203;-84
2023/09/09 07:48:33;;;;;;;;;22.67;16.33;;;;;;;;5071536;27;46640;-83
2023/09/09 07:50:59;;;;;;;;;15.33;15.33;;;;;;;;5090134;27;45488;-83
2023/09/09 07:53:25;;;;;;;;;21.00;18.33;;;;;;;;5089334;27;45854;-83
2023/09/09 07:55:50;;;;;;;;;17.67;15.67;;;;;;;;5086037;27;45586;-83
2023/09/09 07:58:16;;;;;;;;;15.67;12.00;;;;;;;;5090639;27;45975;-80
2023/09/09 08:00:42;;;;;;;;;22.67;17.00;;;;;;;;5093006;27;46871;-82
2023/09/09 08:03:10;;;;;;;;;16.67;16.67;;;;;;;;5072645;27;45435;-83
2023/09/09 08:05:35;;;;;;;;;15.67;14.00;;;;;;;;5070329;27;45467;-81
2023/09/09 08:08:01;;;;;;;;;14.50;12.50;;;;;;;;5088904;27;45391;-84
2023/09/09 08:10:26;;;;;;;;;12.00;10.00;;;;;;;;5075432;27;46466;-81
2023/09/09 08:12:51;;;;;;;;;14.67;13.00;;;;;;;;5095252;27;44824;-84
2023/09/09 08:15:16;;;;;;;;;21.00;17.00;;;;;;;;5089464;27;45299;-84
2023/09/09 08:17:43;;;;;;;;;14.33;11.67;;;;;;;;5093377;27;45790;-80
2023/09/09 08:20:08;;;;;;;;;14.67;13.00;;;;;;;;5087669;27;45858;-81
2023/09/09 08:22:34;;;;;;;;;14.67;12.33;;;;;;;;5089039;27;45941;-81
2023/09/09 08:25:00;;;;;;;;;12.25;12.25;;;;;;;;5073328;27;45478;-83
2023/09/09 08:27:25;;;;;;;;;12.67;10.33;;;;;;;;5089336;27;45811;-82
2023/09/09 08:29:53;;;;;;;;;15.33;12.67;;;;;;;;5083603;27;45662;-77
2023/09/09 08:32:21;;;;;;;;;16.67;14.67;;;;;;;;5085300;27;45732;-84
2023/09/09 08:34:50;;;;;;;;;16.67;14.67;;;;;;;;5068184;27;45713;-75
2023/09/09 08:37:16;;;;;;;;;9.75;9.75;;;;;;;;5085900;27;45767;-77
2023/09/09 08:39:45;;;;;;;;;12.25;10.00;;;;;;;;5085934;27;45745;-85
2023/09/09 08:42:21;;;;;;;;;15.67;12.67;;;;;;;;5089863;27;45582;-84
2023/09/09 08:45:03;;;;;;;;;11.00;10.75;;;;;;;;5088300;27;45496;-78
2023/09/09 08:47:33;;;;;;;;;11.25;10.25;;;;;;;;5088670;27;45817;-82
2023/09/09 08:50:02;;;;;;;;;10.67;10.00;;;;;;;;5083348;27;46035;-76
2023/09/09 08:52:28;;;;;;;;;13.33;12.33;;;;;;;;5068129;27;45366;-83
2023/09/09 08:54:54;;;;;;;;;12.75;9.50;;;;;;;;5087035;27;45430;-83
2023/09/09 08:57:19;;;;;;;;;9.75;9.75;;;;;;;;5085567;27;45442;-84
2023/09/09 08:59:46;;;;;;;;;10.50;9.25;;;;;;;;5065572;27;47871;-83
2023/09/09 09:02:12;;;;;;;;;14.00;12.00;;;;;;;;5064791;27;45809;-74
2023/09/09 09:04:38;;;;;;;;;12.25;11.25;;;;;;;;5063097;27;45555;-76
2023/09/09 09:07:04;;;;;;;;;14.33;12.33;;;;;;;;5081815;27;45799;-76
2023/09/09 09:09:30;;;;;;;;;14.00;11.25;;;;;;;;5073698;27;47278;-76
2023/09/09 09:11:56;;;;;;;;;12.75;11.00;;;;;;;;5081275;27;45554;-85
2023/09/09 09:14:23;;;;;;;;;11.00;10.00;;;;;;;;5067832;27;45529;-86
2023/09/09 09:16:49;;;;;;;;;10.50;10.50;;;;;;;;5075803;27;47339;-85
2023/09/09 09:19:30;;;;;;;;;13.00;12.00;;;;;;;;5089189;27;45534;-75
2023/09/09 09:22:02;;;;;;;;;10.33;10.00;;;;;;;;5086877;27;45934;-83
2023/09/09 09:24:30;;;;;;;;;12.67;11.33;;;;;;;;5061263;27;45594;-75
2023/09/09 09:26:56;;;;;;;;;11.25;11.25;;;;;;;;5081295;27;46426;-85
2023/09/09 09:29:21;;;;;;;;;11.25;10.25;;;;;;;;5084382;27;46910;-74
2023/09/09 09:31:53;;;;;;;;;9.67;9.00;;;;;;;;5087164;27;46515;-76
2023/09/09 09:34:19;;;;;;;;;10.67;10.67;;;;;;;;5088452;27;45838;-77
2023/09/09 09:36:45;;;;;;;;;12.67;10.33;;;;;;;;5084431;27;46015;-83
2023/09/09 09:39:11;;;;;;;;;11.67;11.67;;;;;;;;5091979;27;45696;-77
2023/09/09 09:41:39;;;;;;;;;13.33;13.33;;;;;;;;5077017;27;45543;-79
2023/09/09 09:44:04;;;;;;;;;11.33;10.67;;;;;;;;5077470;27;45810;-77
2023/09/09 09:46:30;;;;;;;;;13.00;12.00;;;;;;;;5081202;27;45492;-75
2023/09/09 09:48:55;;;;;;;;;10.33;9.33;;;;;;;;5076510;27;46476;-75
2023/09/09 09:51:20;;;;;;;;;10.00;10.00;;;;;;;;5078522;27;45697;-75
2023/09/09 09:53:48;;;;;;;;;10.67;10.33;;;;;;;;5070900;27;45848;-75
2023/09/09 09:56:14;;;;;;;;;14.67;11.67;;;;;;;;5084072;27;45504;-78
2023/09/09 09:58:43;;;;;;;;;11.33;11.33;;;;;;;;5083595;27;46551;-77
2023/09/09 10:01:08;;;;;;;;;14.00;11.67;;;;;;;;5077785;27;45902;-78
2023/09/09 10:03:40;;;;;;;;;12.67;11.67;;;;;;;;5061366;27;45549;-78
2023/09/09 10:06:05;;;;;;;;;8.67;8.67;;;;;;;;5080578;27;46029;-77
2023/09/09 10:08:35;;;;;;;;;13.00;13.00;;;;;;;;5086573;27;46639;-77
2023/09/09 10:11:00;;;;;;;;;14.00;13.67;;;;;;;;5073191;27;45467;-78
2023/09/09 10:13:32;;;;;;;;;13.00;13.00;;;;;;;;5083613;27;45501;-83
2023/09/09 10:15:58;;;;;;;;;14.33;14.00;;;;;;;;5073109;27;46086;-77
2023/09/09 10:18:25;;;;;;;;;13.00;13.00;;;;;;;;5081109;27;45795;-78
2023/09/09 10:20:58;;;;;;;;;17.33;14.33;;;;;;;;5083414;27;45806;-74
2023/09/09 10:23:24;;;;;;;;;8.00;8.00;;;;;;;;5078545;27;45711;-75
2023/09/09 10:25:50;;;;;;;;;12.33;11.00;;;;;;;;5081059;27;45948;-76
2023/09/09 10:28:18;;;;;;;;;12.33;10.67;;;;;;;;5068923;27;46239;-75
2023/09/09 10:30:48;;;;;;;;;17.00;12.33;;;;;;;;5079595;27;45586;-74
2023/09/09 10:33:13;;;;;;;;;11.00;11.00;;;;;;;;5084069;27;45508;-76
2023/09/09 10:35:39;;;;;;;;;12.00;11.00;;;;;;;;5079505;27;46075;-77
2023/09/09 10:38:04;;;;;;;;;14.00;13.00;;;;;;;;5085347;27;45492;-76
2023/09/09 10:40:31;;;;;;;;;9.00;9.00;;;;;;;;5082659;27;45679;-77
2023/09/09 10:42:56;;;;;;;;;13.33;12.00;;;;;;;;5081816;27;45465;-76
2023/09/09 10:45:27;;;;;;;;;17.67;14.67;;;;;;;;5081452;27;45394;-78
2023/09/09 10:47:54;;;;;;;;;11.67;10.33;;;;;;;;5075764;27;46200;-78
2023/09/09 10:50:19;;;;;;;;;13.33;13.33;;;;;;;;5087738;27;45813;-77
2023/09/09 10:52:45;;;;;;;;;13.00;13.00;;;;;;;;5060168;27;45387;-83
2023/09/09 10:55:11;;;;;;;;;12.00;12.00;;;;;;;;5079650;27;45294;-86
2023/09/09 10:57:36;;;;;;;;;13.33;12.33;;;;;;;;5084676;27;45498;-83
2023/09/09 11:00:09;;;;;;;;;14.67;12.00;;;;;;;;5074797;27;45399;-85
2023/09/09 11:02:47;;;;;;;;;13.67;13.67;;;;;;;;5083200;27;45369;-85
2023/09/09 11:05:13;;;;;;;;;11.67;11.00;;;;;;;;5103895;27;45525;-84
2023/09/09 11:07:39;;;;;;;;;14.50;13.25;;;;;;;;5091408;27;46143;-82
2023/09/09 11:10:05;;;;;;;;;13.67;13.67;;;;;;;;5087369;27;45777;-84
2023/09/09 11:12:31;;;;;;;;;12.75;12.75;;;;;;;;5090583;27;45725;-82
2023/09/09 11:14:58;;;;;;;;;15.00;15.00;;;;;;;;5075864;27;45895;-85
2023/09/09 11:17:26;;;;;;;;;17.33;15.00;;;;;;;;5077105;27;47189;-84
2023/09/09 11:19:52;;;;;;;;;11.33;11.33;;;;;;;;5094103;27;45440;-78
2023/09/09 11:22:18;;;;;;;;;16.67;16.00;;;;;;;;5068217;27;45749;-76
2023/09/09 11:24:43;;;;;;;;;16.33;14.00;;;;;;;;5072516;27;47598;-76
2023/09/09 11:27:09;;;;;;;;;15.67;15.00;;;;;;;;5097414;27;45909;-79
2023/09/09 11:29:34;;;;;;;;;18.00;17.33;;;;;;;;5097002;27;45766;-84
2023/09/09 11:31:59;;;;;;;;;14.33;13.00;;;;;;;;5094932;27;45377;-76
2023/09/09 11:34:29;;;;;;;;;15.00;14.00;;;;;;;;5076623;27;47216;-87
2023/09/09 11:36:55;;;;;;;;;19.75;12.25;;;;;;;;5077655;27;46633;-84
2023/09/09 11:39:20;;;;;;;;;15.00;15.00;;;;;;;;5088469;27;45420;-86
2023/09/09 11:41:45;;;;;;;;;14.00;12.00;;;;;;;;5096305;27;45700;-84
2023/09/09 11:44:10;;;;;;;;;12.50;12.25;;;;;;;;5090369;27;45759;-83
2023/09/09 11:46:38;;;;;;;;;13.75;13.75;;;;;;;;5096714;27;46228;-83
2023/09/09 11:49:04;;;;;;;;;14.50;13.50;;;;;;;;5085125;27;45777;-81
2023/09/09 11:51:29;;;;;;;;;16.33;15.00;;;;;;;;5089894;27;45654;-82
2023/09/09 11:53:55;;;;;;;;;13.33;13.33;;;;;;;;5098606;27;45431;-83
2023/09/09 11:56:20;;;;;;;;;15.00;13.75;;;;;;;;5068725;27;47059;-82
2023/09/09 11:58:46;;;;;;;;;10.33;10.00;;;;;;;;5076635;27;46014;-84
2023/09/09 12:01:12;;;;;;;;;13.67;11.67;;;;;;;;5094896;27;45566;-84
2023/09/09 12:03:37;;;;;;;;;12.00;12.00;;;;;;;;5093779;27;45512;-85
2023/09/09 12:06:05;;;;;;;;;12.50;12.25;;;;;;;;5081011;27;46138;-84
2023/09/09 12:08:30;;;;;;;;;12.75;12.75;;;;;;;;5089378;27;45431;-84
2023/09/09 12:10:56;;;;;;;;;12.00;11.67;;;;;;;;5085715;27;45885;-84
2023/09/09 12:13:22;;;;;;;;;21.33;20.33;;;;;;;;5095299;27;45566;-83
2023/09/09 12:15:47;;;;;;;;;13.33;12.33;;;;;;;;5095453;27;46700;-83
2023/09/09 12:18:13;;;;;;;;;14.75;13.00;;;;;;;;5078470;27;45555;-84
2023/09/09 12:20:57;;;;;;;;;28.33;23.33;;;;;;;;5094783;27;45536;-84
2023/09/09 12:23:28;;;;;;;;;12.00;10.75;;;;;;;;5087108;27;45720;-83
2023/09/09 12:25:54;;;;;;;;;11.50;11.00;;;;;;;;5077983;27;46820;-84
2023/09/09 12:28:19;;;;;;;;;13.00;12.25;;;;;;;;5075752;27;45900;-84
2023/09/09 12:30:44;;;;;;;;;12.75;12.75;;;;;;;;5077009;27;45713;-84
2023/09/09 12:33:13;;;;;;;;;12.00;11.50;;;;;;;;5075599;27;46016;-83
2023/09/09 12:35:42;;;;;;;;;9.25;9.25;;;;;;;;5090061;27;47390;-82
2023/09/09 12:38:07;;;;;;;;;12.00;12.00;;;;;;;;5098279;27;45785;-82
2023/09/09 12:40:45;;;;;;;;;13.25;13.25;;;;;;;;5078388;27;45643;-84
2023/09/09 12:43:10;;;;;;;;;12.67;12.67;;;;;;;;5098599;27;45726;-83
2023/09/09 12:45:43;;;;;;;;;20.67;15.67;;;;;;;;5087153;27;46379;-83
2023/09/09 12:48:09;;;;;;;;;12.33;12.33;;;;;;;;5088513;27;44888;-83
2023/09/09 12:50:35;;;;;;;;;13.75;13.75;;;;;;;;5089686;27;45870;-82
2023/09/09 12:53:00;;;;;;;;;13.00;13.00;;;;;;;;5095578;27;45863;-83
2023/09/09 12:55:26;;;;;;;;;13.50;12.25;;;;;;;;5076512;27;47314;-83
2023/09/09 12:57:51;;;;;;;;;12.00;10.75;;;;;;;;5091979;27;45465;-83
2023/09/09 13:00:16;;;;;;;;;12.00;10.50;;;;;;;;5085423;27;45530;-82
2023/09/09 13:02:42;;;;;;;;;14.50;13.00;;;;;;;;5076933;27;46732;-82
2023/09/09 13:05:09;;;;;;;;;13.50;12.50;;;;;;;;5092928;27;45810;-84
2023/09/09 13:07:34;;;;;;;;;14.25;13.00;;;;;;;;5093325;27;45559;-83
2023/09/09 13:10:00;;;;;;;;;10.00;9.00;;;;;;;;5101213;27;45417;-82
2023/09/09 13:12:26;;;;;;;;;10.00;10.00;;;;;;;;5099057;27;45527;-83
2023/09/09 13:14:51;;;;;;;;;15.00;14.00;;;;;;;;5095132;27;46343;-83
2023/09/09 13:17:16;;;;;;;;;10.00;10.00;;;;;;;;5091723;27;45716;-83
2023/09/09 13:19:42;;;;;;;;;11.50;11.50;;;;;;;;5090616;27;45958;-84
2023/09/09 13:22:07;;;;;;;;;14.00;13.67;;;;;;;;5096113;27;45758;-83
2023/09/09 13:24:32;;;;;;;;;13.50;13.50;;;;;;;;5094980;27;45608;-83
2023/09/09 13:26:58;;;;;;;;;11.75;11.75;;;;;;;;5080002;27;45615;-82
2023/09/09 13:29:23;;;;;;;;;10.25;10.25;;;;;;;;5096857;27;45814;-84
2023/09/09 13:31:48;;;;;;;;;14.75;10.25;;;;;;;;5088966;27;45693;-83
2023/09/09 13:34:13;;;;;;;;;13.00;11.75;;;;;;;;5078476;27;45454;-83
2023/09/09 13:36:39;;;;;;;;;13.00;11.25;;;;;;;;5084501;27;46411;-83
2023/09/09 13:39:04;;;;;;;;;13.00;13.00;;;;;;;;5097354;27;45803;-83
2023/09/09 13:41:29;;;;;;;;;13.00;11.75;;;;;;;;5092091;27;45798;-83
2023/09/09 13:43:55;;;;;;;;;11.25;11.00;;;;;;;;5089768;27;46695;-84
2023/09/09 13:46:21;;;;;;;;;11.50;11.50;;;;;;;;5079576;27;45887;-85
2023/09/09 13:48:46;;;;;;;;;13.00;13.00;;;;;;;;5089873;27;45597;-85
2023/09/09 13:51:12;;;;;;;;;10.00;10.00;;;;;;;;5093697;27;45447;-84
2023/09/09 13:53:37;;;;;;;;;15.00;10.25;;;;;;;;5089803;27;46943;-83
2023/09/09 13:56:02;;;;;;;;;11.75;10.25;;;;;;;;5081390;27;45845;-84
2023/09/09 13:58:28;;;;;;;;;10.25;9.75;;;;;;;;5070360;27;46001;-82
2023/09/09 14:00:53;;;;;;;;;8.75;8.75;;;;;;;;5088591;27;45836;-83
2023/09/09 14:03:19;;;;;;;;;10.00;10.00;;;;;;;;5091374;27;46278;-84
2023/09/09 14:05:45;;;;;;;;;6.75;6.00;;;;;;;;5083922;27;45924;-81
2023/09/09 14:08:10;;;;;;;;;11.50;10.50;;;;;;;;5091340;27;45710;-82
2023/09/09 14:10:35;;;;;;;;;9.50;8.75;;;;;;;;5085171;27;45417;-82
2023/09/09 14:13:01;;;;;;;;;12.50;10.50;;;;;;;;5088530;27;47281;-82